Time;durP1;ratioP1;P1;durP2;ratioP2;P2;SDS_P1;SDS_P2;PMS_P1;PMS_P2;Temp;Humidity;BMP_temperature;BMP_pressure;BME280_temperature;BME280_humidity;BME280_pressure;Samples;Min_cycle;Max_cycle;Signal;HPM_P1;HPM_P2
2023/05/16 00:00:46;;;;;;;8.13;6.73;;;15.00;99.90;;;;;;5079119;28;20189;-65
2023/05/16 00:03:14;;;;;;;6.90;5.85;;;14.90;99.90;;;;;;5064059;28;20704;-64
2023/05/16 00:05:41;;;;;;;8.80;6.83;;;14.70;99.90;;;;;;5061008;28;20223;-65
2023/05/16 00:08:08;;;;;;;7.50;6.67;;;14.70;99.90;;;;;;5057335;28;21957;-64
2023/05/16 00:10:36;;;;;;;7.50;6.30;;;14.70;99.90;;;;;;5084616;28;20200;-65
2023/05/16 00:13:05;;;;;;;7.80;7.00;;;14.60;99.90;;;;;;5068383;28;20205;-66
2023/05/16 00:15:33;;;;;;;8.63;6.47;;;14.70;99.90;;;;;;5058223;28;20725;-67
2023/05/16 00:18:00;;;;;;;7.80;6.72;;;14.80;99.90;;;;;;5082604;28;20213;-65
2023/05/16 00:20:28;;;;;;;6.40;5.80;;;14.50;99.90;;;;;;5069229;28;20762;-65
2023/05/16 00:22:59;;;;;;;7.33;6.60;;;14.80;99.90;;;;;;5064648;28;20247;-65
2023/05/16 00:25:27;;;;;;;7.63;6.55;;;14.90;99.90;;;;;;5068452;28;20244;-65
2023/05/16 00:27:54;;;;;;;7.10;6.40;;;14.60;99.90;;;;;;5074916;28;21079;-65
2023/05/16 00:30:21;;;;;;;7.03;6.35;;;14.70;99.90;;;;;;5083122;28;20723;-67
2023/05/16 00:32:50;;;;;;;7.27;6.07;;;14.70;99.90;;;;;;5065809;28;20205;-66
2023/05/16 00:35:17;;;;;;;6.97;6.03;;;14.60;99.90;;;;;;5061741;28;20354;-65
2023/05/16 00:37:45;;;;;;;8.67;7.63;;;14.40;99.90;;;;;;5080232;28;20273;-65
2023/05/16 00:40:12;;;;;;;8.85;7.13;;;14.30;99.90;;;;;;5046122;28;20198;-67
2023/05/16 00:42:39;;;;;;;8.17;7.27;;;14.40;99.90;;;;;;5074077;28;20216;-65
2023/05/16 00:45:06;;;;;;;8.10;6.70;;;14.00;99.90;;;;;;5077835;28;20190;-64
2023/05/16 00:47:34;;;;;;;7.77;6.67;;;13.90;99.90;;;;;;5077543;28;20214;-68
2023/05/16 00:50:02;;;;;;;7.37;6.67;;;14.00;99.90;;;;;;5070463;28;20285;-64
2023/05/16 00:52:32;;;;;;;7.93;7.00;;;14.20;99.90;;;;;;5062074;28;20287;-64
2023/05/16 00:55:00;;;;;;;8.80;7.77;;;14.10;99.90;;;;;;5076389;28;20228;-64
2023/05/16 00:57:27;;;;;;;7.87;7.07;;;14.20;99.90;;;;;;5058509;28;20197;-66
2023/05/16 00:59:56;;;;;;;7.70;6.87;;;13.90;99.90;;;;;;5084416;28;20201;-64
2023/05/16 01:02:27;;;;;;;8.37;6.87;;;13.80;99.90;;;;;;5097041;23;20291;-63
2023/05/16 01:04:57;;;;;;;8.77;7.00;;;14.00;99.90;;;;;;5063286;28;20188;-62
2023/05/16 01:07:24;;;;;;;7.43;6.60;;;13.90;99.90;;;;;;5066585;28;20635;-61
2023/05/16 01:09:52;;;;;;;10.13;7.33;;;13.90;99.90;;;;;;5084644;28;20291;-61
2023/05/16 01:12:39;;;;;;;9.27;7.57;;;13.60;99.90;;;;;;5067473;28;20330;-61
2023/05/16 01:15:19;;;;;;;8.93;6.90;;;13.50;99.90;;;;;;5068779;28;20605;-60
2023/05/16 01:17:59;;;;;;;9.27;7.47;;;13.30;99.90;;;;;;5063740;28;20203;-61
2023/05/16 01:20:40;;;;;;;8.90;7.00;;;13.20;99.90;;;;;;5067192;28;20214;-61
2023/05/16 01:23:19;;;;;;;8.47;6.70;;;12.90;99.90;;;;;;5065419;28;20246;-60
2023/05/16 01:26:20;;;;;;;7.43;6.63;;;12.80;99.90;;;;;;5065130;28;20198;-61
2023/05/16 01:28:49;;;;;;;7.13;6.40;;;12.90;99.90;;;;;;5060965;28;20698;-62
2023/05/16 01:31:18;;;;;;;9.90;7.43;;;13.20;99.90;;;;;;5075001;28;20201;-62
2023/05/16 01:33:46;;;;;;;9.23;7.40;;;13.40;99.90;;;;;;5064804;28;20194;-64
2023/05/16 01:36:28;;;;;;;6.87;6.27;;;13.10;99.90;;;;;;5070111;28;20182;-66
2023/05/16 01:39:13;;;;;;;8.33;7.10;;;13.30;99.90;;;;;;5069133;28;20198;-61
2023/05/16 01:42:04;;;;;;;6.80;6.13;;;13.50;99.90;;;;;;5071386;28;20228;-61
2023/05/16 01:44:39;;;;;;;6.67;5.97;;;13.50;99.90;;;;;;5081811;28;20184;-60
2023/05/16 01:47:13;;;;;;;7.10;6.40;;;13.40;99.90;;;;;;5069942;28;20201;-59
2023/05/16 01:50:00;;;;;;;6.97;5.57;;;13.30;99.90;;;;;;5085765;28;21102;-60
2023/05/16 01:52:55;;;;;;;5.87;5.00;;;13.00;99.90;;;;;;5090092;28;20210;-59
2023/05/16 01:55:37;;;;;;;5.10;4.60;;;13.10;99.90;;;;;;5083913;28;20202;-60
2023/05/16 01:58:07;;;;;;;6.43;5.57;;;13.20;99.90;;;;;;5070527;28;20194;-59
2023/05/16 02:00:34;;;;;;;5.33;4.73;;;13.00;99.90;;;;;;5068178;28;20225;-60
2023/05/16 02:03:02;;;;;;;5.30;3.50;;;13.20;99.90;;;;;;5057326;28;20227;-62
2023/05/16 02:05:32;;;;;;;4.97;2.97;;;13.10;99.90;;;;;;5048843;28;20728;-62
2023/05/16 02:07:59;;;;;;;4.13;2.90;;;13.10;99.90;;;;;;5051921;28;20317;-60
2023/05/16 02:10:27;;;;;;;3.63;2.73;;;12.70;99.90;;;;;;5053628;28;20191;-60
2023/05/16 02:12:54;;;;;;;4.10;2.70;;;13.10;99.90;;;;;;5037916;28;20660;-60
2023/05/16 02:15:21;;;;;;;3.83;2.20;;;13.60;99.90;;;;;;5040468;28;20191;-61
2023/05/16 02:17:48;;;;;;;4.67;2.20;;;13.70;99.90;;;;;;5046095;28;20191;-60
2023/05/16 02:20:16;;;;;;;3.20;2.37;;;13.70;99.90;;;;;;5052067;28;20200;-62
2023/05/16 02:22:45;;;;;;;3.83;2.20;;;13.90;99.90;;;;;;5044774;28;20290;-62
2023/05/16 02:25:14;;;;;;;5.60;2.07;;;13.50;99.90;;;;;;5055801;28;20209;-62
2023/05/16 02:27:42;;;;;;;4.93;2.37;;;13.40;99.90;;;;;;5080584;28;20203;-63
2023/05/16 02:30:12;;;;;;;6.77;2.27;;;13.00;99.90;;;;;;5048290;28;20290;-62
2023/05/16 02:32:40;;;;;;;6.00;2.40;;;12.90;99.90;;;;;;5053609;28;20289;-62
2023/05/16 02:35:07;;;;;;;6.27;2.73;;;13.10;99.90;;;;;;5080648;28;20303;-62
2023/05/16 02:37:34;;;;;;;9.00;3.23;;;13.10;99.90;;;;;;5034440;28;20203;-62
2023/05/16 02:40:04;;;;;;;6.50;3.00;;;13.00;99.90;;;;;;5055795;28;20211;-62
2023/05/16 02:42:31;;;;;;;6.53;2.87;;;13.00;99.90;;;;;;5049885;28;20208;-62
2023/05/16 02:44:59;;;;;;;8.30;3.20;;;13.00;99.90;;;;;;5051283;28;20298;-62
2023/05/16 02:47:26;;;;;;;11.00;3.60;;;12.50;99.90;;;;;;5051605;28;20245;-62
2023/05/16 02:49:53;;;;;;;7.80;3.43;;;12.80;99.90;;;;;;5054508;28;20187;-62
2023/05/16 02:52:20;;;;;;;5.77;2.70;;;12.80;99.90;;;;;;5039737;28;20793;-62
2023/05/16 02:54:47;;;;;;;9.53;2.80;;;12.70;99.90;;;;;;5058617;28;20199;-64
2023/05/16 02:57:30;;;;;;;6.87;2.90;;;12.70;99.90;;;;;;5048453;28;20277;-63
2023/05/16 02:59:57;;;;;;;6.97;2.50;;;12.90;99.90;;;;;;5047807;28;20680;-63
2023/05/16 03:02:24;;;;;;;4.40;2.30;;;12.70;99.90;;;;;;5066626;28;20239;-61
2023/05/16 03:04:52;;;;;;;6.47;3.03;;;12.50;99.90;;;;;;5058255;28;20253;-61
2023/05/16 03:07:19;;;;;;;6.77;2.90;;;12.50;99.90;;;;;;5062066;28;20218;-61
2023/05/16 03:09:46;;;;;;;8.20;2.77;;;12.30;99.90;;;;;;5048114;28;20195;-61
2023/05/16 03:12:13;;;;;;;8.80;2.70;;;12.40;99.90;;;;;;5063160;28;20735;-61
2023/05/16 03:14:40;;;;;;;7.00;2.87;;;12.20;99.90;;;;;;5030059;28;20203;-61
2023/05/16 03:17:08;;;;;;;13.27;4.00;;;11.90;99.90;;;;;;5055137;28;20294;-61
2023/05/16 03:19:36;;;;;;;8.63;3.30;;;11.70;99.90;;;;;;5040823;28;20223;-62
2023/05/16 03:22:03;;;;;;;11.37;2.80;;;11.90;99.90;;;;;;5066795;28;20206;-63
2023/05/16 03:24:30;;;;;;;8.43;3.03;;;12.30;99.90;;;;;;5036245;28;20194;-62
2023/05/16 03:26:58;;;;;;;8.33;3.50;;;12.30;99.90;;;;;;5046461;28;20365;-61
2023/05/16 03:29:26;;;;;;;10.80;3.77;;;12.20;99.90;;;;;;5023641;28;20192;-61
2023/05/16 03:31:53;;;;;;;11.53;3.50;;;12.20;99.90;;;;;;5049820;28;20256;-61
2023/05/16 03:34:20;;;;;;;10.30;4.00;;;12.10;99.90;;;;;;5049179;28;20192;-60
2023/05/16 03:36:48;;;;;;;11.60;3.63;;;11.90;99.90;;;;;;5048694;28;20555;-61
2023/05/16 03:39:16;;;;;;;15.47;4.33;;;11.70;99.90;;;;;;5047111;28;20213;-63
2023/05/16 03:41:43;;;;;;;9.23;3.50;;;11.70;99.90;;;;;;5047247;28;20843;-61
2023/05/16 03:44:10;;;;;;;12.90;3.67;;;11.60;99.90;;;;;;5035591;28;20608;-61
2023/05/16 03:46:37;;;;;;;14.97;4.07;;;11.60;99.90;;;;;;5064921;28;20183;-62
2023/05/16 03:49:04;;;;;;;10.13;3.47;;;11.50;99.90;;;;;;5067168;28;20207;-62
2023/05/16 03:51:33;;;;;;;18.60;3.90;;;11.50;99.90;;;;;;5061627;28;20192;-62
2023/05/16 03:54:00;;;;;;;28.17;3.27;;;11.50;99.90;;;;;;5050412;28;20282;-62
2023/05/16 03:56:27;;;;;;;11.07;3.47;;;11.60;99.90;;;;;;5042408;28;20216;-60
2023/05/16 03:58:54;;;;;;;16.93;3.80;;;11.50;99.90;;;;;;5065519;28;20203;-61
2023/05/16 04:01:21;;;;;;;13.70;3.50;;;11.70;99.90;;;;;;5070227;28;20331;-62
2023/05/16 04:03:49;;;;;;;14.57;4.27;;;11.70;99.90;;;;;;5059201;28;20199;-60
2023/05/16 04:06:16;;;;;;;12.23;3.93;;;11.70;99.90;;;;;;5033393;28;20194;-62
2023/05/16 04:08:44;;;;;;;12.30;3.43;;;11.50;99.90;;;;;;5054781;28;20737;-63
2023/05/16 04:11:11;;;;;;;11.77;3.93;;;11.90;99.90;;;;;;5064517;28;20191;-60
2023/05/16 04:13:38;;;;;;;15.97;4.53;;;11.60;99.90;;;;;;5050124;28;20270;-61
2023/05/16 04:16:05;;;;;;;12.07;3.07;;;11.60;99.90;;;;;;5068692;28;20218;-60
2023/05/16 04:18:33;;;;;;;16.47;3.87;;;11.50;99.90;;;;;;5048366;28;20199;-60
2023/05/16 04:21:00;;;;;;;13.20;3.70;;;11.70;99.90;;;;;;5048480;28;20201;-62
2023/05/16 04:23:27;;;;;;;16.00;4.17;;;11.70;99.90;;;;;;5046915;28;20191;-61
2023/05/16 04:25:55;;;;;;;22.00;3.90;;;11.40;99.90;;;;;;5026926;28;20206;-61
2023/05/16 04:28:22;;;;;;;12.30;2.97;;;11.10;99.90;;;;;;5061677;28;20746;-61
2023/05/16 04:30:50;;;;;;;15.83;3.77;;;11.10;99.90;;;;;;5063970;28;20209;-62
2023/05/16 04:33:17;;;;;;;17.77;3.33;;;11.20;99.90;;;;;;5032257;28;20190;-62
2023/05/16 04:35:44;;;;;;;8.80;2.70;;;11.50;99.90;;;;;;5057449;28;20552;-62
2023/05/16 04:38:11;;;;;;;13.67;3.40;;;11.60;99.90;;;;;;5047522;28;20238;-62
2023/05/16 04:40:40;;;;;;;14.47;3.10;;;11.30;99.90;;;;;;5047888;28;20210;-62
2023/05/16 04:43:07;;;;;;;12.23;3.10;;;11.10;99.90;;;;;;5048254;28;20191;-61
2023/05/16 04:45:34;;;;;;;11.33;3.63;;;11.20;99.90;;;;;;5057514;28;20199;-61
2023/05/16 04:48:03;;;;;;;13.83;3.30;;;11.20;99.90;;;;;;5049303;28;20276;-61
2023/05/16 04:50:31;;;;;;;13.03;2.83;;;11.10;99.90;;;;;;5051575;28;20755;-62
2023/05/16 04:52:58;;;;;;;16.20;3.13;;;11.40;99.90;;;;;;5051101;28;20668;-61
2023/05/16 04:55:25;;;;;;;17.00;3.97;;;11.20;99.90;;;;;;5053718;28;20245;-63
2023/05/16 04:57:52;;;;;;;13.13;3.20;;;11.50;99.90;;;;;;5064528;28;20194;-61
2023/05/16 05:00:20;;;;;;;17.83;3.77;;;11.40;99.90;;;;;;5068290;28;20244;-61
2023/05/16 05:02:47;;;;;;;14.47;3.20;;;11.50;99.90;;;;;;5067965;28;20657;-62
2023/05/16 05:05:14;;;;;;;11.13;3.10;;;11.00;99.90;;;;;;5067849;28;20273;-63
2023/05/16 05:07:41;;;;;;;9.90;2.80;;;11.30;99.90;;;;;;5064212;28;20226;-62
2023/05/16 05:10:10;;;;;;;18.10;2.97;;;11.10;99.90;;;;;;5054291;28;20790;-61
2023/05/16 05:12:37;;;;;;;14.70;3.23;;;11.10;99.90;;;;;;5064517;28;20202;-62
2023/05/16 05:15:05;;;;;;;16.63;3.27;;;11.80;99.90;;;;;;5070128;28;20179;-61
2023/05/16 05:17:32;;;;;;;9.27;2.50;;;12.60;99.90;;;;;;5064502;28;20191;-62
2023/05/16 05:20:00;;;;;;;12.70;2.90;;;15.00;99.90;;;;;;5063257;28;20195;-62
2023/05/16 05:22:29;;;;;;;10.15;3.13;;;15.50;99.90;;;;;;5045707;28;20228;-62
2023/05/16 05:24:56;;;;;;;12.93;3.20;;;16.00;99.90;;;;;;5067191;28;20199;-62
2023/05/16 05:27:24;;;;;;;9.00;2.10;;;16.20;99.90;;;;;;5047628;28;20202;-62
2023/05/16 05:29:51;;;;;;;8.63;2.92;;;16.20;99.90;;;;;;5061672;28;20297;-61
2023/05/16 05:32:18;;;;;;;8.77;2.45;;;17.40;99.90;;;;;;5068713;28;20198;-63
2023/05/16 05:34:45;;;;;;;12.02;2.80;;;17.80;99.90;;;;;;5067868;28;20664;-62
2023/05/16 05:37:13;;;;;;;12.60;2.78;;;17.90;99.90;;;;;;5058214;28;20229;-61
2023/05/16 05:39:40;;;;;;;9.80;2.70;;;17.90;99.90;;;;;;5059754;28;20669;-63
2023/05/16 05:42:07;;;;;;;13.05;7.78;;;18.30;99.90;;;;;;5070126;28;20194;-61
2023/05/16 05:44:36;;;;;;;9.20;2.72;;;18.80;99.90;;;;;;5038963;28;20194;-62
2023/05/16 05:47:05;;;;;;;13.52;5.18;;;19.10;99.90;;;;;;5066449;28;20203;-61
2023/05/16 05:49:33;;;;;;;8.93;3.42;;;20.30;99.90;;;;;;5049257;28;20213;-61
2023/05/16 05:52:00;;;;;;;9.43;2.33;;;20.10;99.90;;;;;;5049233;28;20269;-62
2023/05/16 05:54:28;;;;;;;10.48;2.63;;;20.60;99.90;;;;;;5052010;28;20191;-62
2023/05/16 05:56:58;;;;;;;11.15;3.15;;;20.30;99.90;;;;;;5071787;28;20659;-62
2023/05/16 05:59:26;;;;;;;15.02;3.13;;;20.40;99.90;;;;;;5062240;28;20187;-63
2023/05/16 06:01:53;;;;;;;6.05;2.22;;;21.00;99.90;;;;;;5063843;28;20233;-62
2023/05/16 06:04:20;;;;;;;5.90;2.20;;;21.80;99.90;;;;;;5051179;28;20237;-61
2023/05/16 06:06:47;;;;;;;11.45;4.70;;;22.20;99.90;;;;;;5049966;28;20252;-62
2023/05/16 06:09:15;;;;;;;15.13;9.50;;;22.00;99.90;;;;;;5062307;28;20253;-62
2023/05/16 06:11:44;;;;;;;18.70;11.73;;;22.50;99.90;;;;;;5026612;28;20184;-62
2023/05/16 06:14:17;;;;;;;10.20;5.60;;;21.50;99.90;;;;;;5067640;28;20191;-62
2023/05/16 06:16:44;;;;;;;10.45;6.85;;;20.40;99.90;;;;;;5035937;28;20229;-63
2023/05/16 06:19:14;;;;;;;27.65;18.05;;;20.50;99.90;;;;;;5066273;28;20195;-62
2023/05/16 06:21:42;;;;;;;30.45;26.08;;;21.40;99.90;;;;;;5052666;28;20739;-62
2023/05/16 06:24:11;;;;;;;13.80;8.75;;;20.70;99.90;;;;;;5068059;28;20203;-63
2023/05/16 06:26:38;;;;;;;16.15;7.07;;;20.20;99.90;;;;;;5073019;28;20261;-63
2023/05/16 06:29:05;;;;;;;14.40;5.93;;;19.40;99.90;;;;;;5053172;28;20207;-62
2023/05/16 06:31:32;;;;;;;14.15;3.55;;;19.10;99.90;;;;;;5063675;28;20714;-63
2023/05/16 06:33:59;;;;;;;6.05;3.15;;;18.70;99.90;;;;;;5051129;28;20207;-63
2023/05/16 06:36:26;;;;;;;10.20;3.60;;;20.30;99.90;;;;;;5068054;28;20202;-61
2023/05/16 06:38:53;;;;;;;8.75;2.55;;;20.80;99.90;;;;;;5038055;28;20294;-61
2023/05/16 06:41:20;;;;;;;10.75;3.08;;;22.50;99.90;;;;;;5047984;28;20199;-62
2023/05/16 06:43:48;;;;;;;13.27;3.38;;;20.70;99.90;;;;;;5038675;28;20298;-63
2023/05/16 06:46:15;;;;;;;11.18;3.72;;;19.50;99.90;;;;;;5066977;28;20350;-63
2023/05/16 06:48:42;;;;;;;12.80;3.40;;;20.20;99.90;;;;;;5052144;28;20211;-62
2023/05/16 06:51:09;;;;;;;11.20;4.13;;;20.10;99.90;;;;;;5060521;28;20238;-62
2023/05/16 06:53:36;;;;;;;12.85;3.65;;;20.00;99.90;;;;;;5062100;28;20584;-63
2023/05/16 06:56:04;;;;;;;13.75;3.08;;;19.30;99.90;;;;;;5067659;28;20656;-62
2023/05/16 06:58:31;;;;;;;10.13;3.40;;;18.20;99.90;;;;;;5051620;28;20202;-62
2023/05/16 07:00:58;;;;;;;9.70;3.17;;;17.40;99.90;;;;;;5064753;28;20234;-62
2023/05/16 07:03:25;;;;;;;9.55;3.00;;;18.00;99.90;;;;;;5064580;28;20187;-61
2023/05/16 07:05:52;;;;;;;7.00;3.33;;;20.40;99.90;;;;;;5050990;28;20194;-59
2023/05/16 07:08:20;;;;;;;9.07;2.30;;;23.10;99.90;;;;;;5063659;28;20211;-59
2023/05/16 07:10:46;;;;;;;7.07;2.97;;;24.60;99.90;;;;;;5047911;28;20201;-59
2023/05/16 07:13:13;;;;;;;11.18;2.85;;;26.20;99.90;;;;;;5064621;28;20215;-59
2023/05/16 07:15:40;;;;;;;6.80;2.60;;;24.90;99.90;;;;;;5066376;28;20195;-58
2023/05/16 07:18:07;;;;;;;9.13;3.13;;;22.50;99.90;;;;;;5062431;28;20203;-62
2023/05/16 07:20:35;;;;;;;12.73;2.67;;;21.20;99.90;;;;;;5061446;28;20199;-60
2023/05/16 07:23:02;;;;;;;14.25;3.00;;;19.10;99.90;;;;;;5065889;28;20658;-61
2023/05/16 07:25:29;;;;;;;8.13;2.60;;;18.20;99.90;;;;;;5050191;28;20183;-59
2023/05/16 07:27:56;;;;;;;9.00;2.28;;;18.00;99.90;;;;;;5049400;28;20274;-61
2023/05/16 07:30:23;;;;;;;12.55;2.95;;;17.70;99.90;;;;;;5066358;28;22203;-59
2023/05/16 07:32:50;;;;;;;8.23;2.80;;;20.00;99.90;;;;;;5041535;28;20202;-58
2023/05/16 07:35:17;;;;;;;7.53;2.20;;;23.40;99.90;;;;;;5046871;28;20187;-60
2023/05/16 07:37:45;;;;;;;7.25;2.60;;;25.60;99.90;;;;;;5060561;28;20792;-58
2023/05/16 07:40:12;;;;;;;8.95;2.33;;;24.10;99.90;;;;;;5039193;28;20201;-59
2023/05/16 07:42:39;;;;;;;6.53;2.65;;;22.70;99.90;;;;;;5060925;28;20237;-60
2023/05/16 07:45:07;;;;;;;10.40;2.70;;;21.80;99.90;;;;;;5049259;28;20256;-61
2023/05/16 07:47:34;;;;;;;8.50;2.92;;;24.50;99.90;;;;;;5058820;28;20199;-60
2023/05/16 07:50:02;;;;;;;4.55;1.95;;;25.30;99.90;;;;;;5066854;28;20207;-58
2023/05/16 07:52:29;;;;;;;6.97;2.40;;;24.40;99.90;;;;;;5064377;28;20544;-59
2023/05/16 07:54:57;;;;;;;7.25;2.40;;;23.60;99.90;;;;;;5061292;28;20187;-61
2023/05/16 07:57:24;;;;;;;6.22;2.20;;;21.00;99.90;;;;;;5064579;28;20197;-59
2023/05/16 07:59:51;;;;;;;9.05;2.33;;;24.10;99.90;;;;;;5046624;28;20208;-60
2023/05/16 08:02:19;;;;;;;7.93;2.20;;;27.20;99.90;;;;;;5066528;28;20325;-57
2023/05/16 08:04:47;;;;;;;9.00;2.50;;;29.90;99.90;;;;;;5048015;28;20210;-57
2023/05/16 08:07:14;;;;;;;7.95;2.33;;;30.40;99.90;;;;;;5057882;28;20206;-57
2023/05/16 08:09:41;;;;;;;6.20;2.25;;;28.50;99.90;;;;;;5060696;28;20277;-58
2023/05/16 08:12:09;;;;;;;6.55;2.53;;;26.60;99.90;;;;;;5065079;28;20274;-59
2023/05/16 08:14:36;;;;;;;9.45;2.30;;;24.90;99.90;;;;;;5050551;28;20199;-60
2023/05/16 08:17:03;;;;;;;8.13;2.40;;;25.60;99.90;;;;;;5061622;28;20199;-58
2023/05/16 08:19:31;;;;;;;6.88;1.85;;;28.00;99.90;;;;;;5058760;28;20194;-59
2023/05/16 08:21:58;;;;;;;9.27;2.03;;;25.50;99.90;;;;;;5061904;28;20202;-60
2023/05/16 08:24:26;;;;;;;5.13;2.17;;;22.80;99.90;;;;;;5066931;28;20251;-60
2023/05/16 08:26:53;;;;;;;6.57;2.15;;;20.20;99.90;;;;;;5068723;28;20226;-59
2023/05/16 08:29:20;;;;;;;5.45;1.92;;;19.00;99.90;;;;;;5047548;28;20219;-60
2023/05/16 08:31:47;;;;;;;6.50;2.13;;;18.70;99.90;;;;;;5068264;28;20202;-59
2023/05/16 08:34:14;;;;;;;5.65;1.60;;;19.30;99.90;;;;;;5051561;28;20729;-60
2023/05/16 08:36:41;;;;;;;4.35;1.98;;;21.60;99.90;;;;;;5050073;28;20194;-58
2023/05/16 08:39:10;;;;;;;7.07;1.40;;;25.90;99.90;;;;;;5067997;28;20195;-59
2023/05/16 08:41:38;;;;;;;4.22;1.80;;;26.60;99.90;;;;;;5068107;28;20198;-59
2023/05/16 08:44:05;;;;;;;5.05;1.48;;;25.50;99.90;;;;;;5049283;28;20274;-59
2023/05/16 08:46:35;;;;;;;4.45;2.22;;;22.60;99.90;;;;;;5046285;28;20195;-58
2023/05/16 08:49:06;;;;;;;4.38;1.67;;;20.50;99.90;;;;;;5066053;28;20668;-60
2023/05/16 08:51:36;;;;;;;7.05;2.13;;;21.30;99.90;;;;;;5066818;28;20230;-60
2023/05/16 08:54:10;;;;;;;11.05;2.17;;;20.10;99.90;;;;;;5056871;28;20194;-61
2023/05/16 08:56:38;;;;;;;5.97;2.13;;;20.50;99.90;;;;;;5057256;28;20209;-60
2023/05/16 08:59:05;;;;;;;7.90;2.63;;;20.60;99.90;;;;;;5049921;28;20245;-60
2023/05/16 09:01:33;;;;;;;6.90;2.20;;;22.40;99.90;;;;;;5062758;28;20790;-60
2023/05/16 09:04:03;;;;;;;7.93;2.75;;;22.80;99.90;;;;;;5055441;28;20617;-59
2023/05/16 09:06:30;;;;;;;8.85;3.33;;;23.70;99.90;;;;;;5053468;28;20195;-59
2023/05/16 09:08:57;;;;;;;8.00;2.22;;;26.60;99.90;;;;;;5050440;28;20206;-60
2023/05/16 09:11:24;;;;;;;7.60;3.47;;;27.70;99.90;;;;;;5070401;28;20719;-59
2023/05/16 09:13:54;;;;;;;6.57;3.38;;;26.90;99.90;;;;;;5059497;28;20209;-59
2023/05/16 09:16:21;;;;;;;11.52;3.67;;;24.50;99.90;;;;;;5060467;28;20300;-59
2023/05/16 09:18:58;;;;;;;18.67;6.00;;;22.80;99.90;;;;;;5046605;28;20252;-60
2023/05/16 09:21:27;;;;;;;6.97;2.90;;;21.60;99.90;;;;;;5062568;28;20191;-59
2023/05/16 09:23:54;;;;;;;7.93;3.65;;;22.50;99.90;;;;;;5071491;28;20194;-59
2023/05/16 09:26:22;;;;;;;12.75;7.70;;;23.90;99.90;;;;;;5057851;28;20673;-60
2023/05/16 09:28:54;;;;;;;16.30;8.65;;;25.70;99.90;;;;;;5072247;28;20205;-60
2023/05/16 09:31:25;;;;;;;9.63;5.97;;;26.50;99.90;;;;;;5056524;28;20218;-61
2023/05/16 09:33:56;;;;;;;10.63;6.95;;;26.40;99.90;;;;;;5066662;28;20724;-59
2023/05/16 09:36:24;;;;;;;10.05;4.68;;;24.40;99.90;;;;;;5067493;28;20195;-59
2023/05/16 09:38:52;;;;;;;7.57;4.10;;;22.40;99.90;;;;;;5059393;28;20197;-60
2023/05/16 09:41:21;;;;;;;8.48;2.63;;;21.60;99.90;;;;;;5065573;28;20722;-59
2023/05/16 09:43:48;;;;;;;6.38;2.08;;;21.90;99.90;;;;;;5055348;28;20199;-61
2023/05/16 09:46:16;;;;;;;5.35;2.47;;;22.70;99.90;;;;;;5057915;28;20195;-59
2023/05/16 09:48:46;;;;;;;6.30;1.98;;;21.70;99.90;;;;;;5064337;28;20623;-59
2023/05/16 09:51:14;;;;;;;6.00;2.40;;;20.80;99.90;;;;;;5068118;28;20665;-62
2023/05/16 09:53:42;;;;;;;7.03;1.90;;;22.90;99.90;;;;;;5074083;28;20574;-59
2023/05/16 09:56:13;;;;;;;5.93;2.20;;;24.30;99.90;;;;;;5070511;28;20195;-61
2023/05/16 09:58:42;;;;;;;6.40;2.10;;;22.80;99.90;;;;;;5051860;28;20516;-60
2023/05/16 10:01:10;;;;;;;6.57;1.85;;;21.90;99.90;;;;;;5055582;28;20234;-61
2023/05/16 10:03:40;;;;;;;8.40;3.95;;;20.40;99.90;;;;;;5066858;28;20186;-60
2023/05/16 10:06:09;;;;;;;5.53;2.63;;;20.10;99.90;;;;;;5068058;28;20198;-60
2023/05/16 10:08:37;;;;;;;4.47;2.17;;;22.40;99.90;;;;;;5049491;28;20694;-60
2023/05/16 10:11:05;;;;;;;4.38;1.60;;;24.50;99.90;;;;;;5064359;28;20751;-59
2023/05/16 10:13:34;;;;;;;6.30;2.00;;;24.90;99.90;;;;;;5065572;28;20187;-57
2023/05/16 10:16:07;;;;;;;3.35;1.90;;;25.70;99.90;;;;;;5039163;28;20672;-58
2023/05/16 10:18:37;;;;;;;4.57;1.88;;;24.40;99.90;;;;;;5068657;28;20183;-59
2023/05/16 10:21:07;;;;;;;4.65;1.90;;;23.00;99.90;;;;;;5069545;28;20209;-59
2023/05/16 10:23:42;;;;;;;5.47;1.88;;;21.40;99.90;;;;;;5061018;28;20191;-60
2023/05/16 10:26:12;;;;;;;4.10;1.70;;;22.50;99.90;;;;;;5046905;28;20183;-61
2023/05/16 10:28:40;;;;;;;5.03;1.80;;;23.60;99.90;;;;;;5065620;28;20188;-60
2023/05/16 10:31:09;;;;;;;7.25;1.77;;;22.60;99.90;;;;;;5067738;28;20324;-60
2023/05/16 10:33:38;;;;;;;5.50;1.65;;;21.60;99.90;;;;;;5061007;28;20582;-61
2023/05/16 10:36:07;;;;;;;6.05;1.63;;;20.60;99.90;;;;;;5073702;28;20560;-59
2023/05/16 10:38:35;;;;;;;3.58;1.38;;;20.90;99.90;;;;;;5039119;28;20195;-59
2023/05/16 10:41:03;;;;;;;5.00;1.58;;;20.90;99.90;;;;;;5064334;28;20230;-59
2023/05/16 10:43:30;;;;;;;4.47;1.85;;;20.60;99.90;;;;;;5050362;28;20213;-60
2023/05/16 10:46:03;;;;;;;5.68;1.77;;;20.30;99.90;;;;;;5055506;28;20898;-61
2023/05/16 10:48:35;;;;;;;4.75;1.70;;;20.90;99.90;;;;;;5060194;28;20191;-59
2023/05/16 10:51:04;;;;;;;5.22;1.58;;;22.90;99.90;;;;;;5035859;28;20218;-57
2023/05/16 10:53:33;;;;;;;4.55;1.60;;;25.40;99.90;;;;;;5064435;28;20599;-57
2023/05/16 10:56:00;;;;;;;6.70;1.58;;;25.70;99.90;;;;;;5053766;28;20730;-58
2023/05/16 10:58:39;;;;;;;4.63;1.55;;;24.60;99.90;;;;;;5053453;28;20190;-60
2023/05/16 11:01:28;;;;;;;3.03;1.20;;;23.10;99.90;;;;;;5067198;28;20238;-60
2023/05/16 11:03:56;;;;;;;4.22;1.60;;;22.20;99.90;;;;;;5058006;28;20195;-60
2023/05/16 11:06:33;;;;;;;4.30;1.52;;;21.00;99.90;;;;;;5072930;28;20199;-61
2023/05/16 11:09:25;;;;;;;4.18;1.63;;;20.70;99.90;;;;;;5061685;28;20313;-60
2023/05/16 11:11:50;;;;;;;6.00;1.48;;;21.10;99.90;;;;;;5052855;28;20202;-61
2023/05/16 11:14:28;;;;;;;4.35;1.60;;;21.00;99.90;;;;;;5058840;28;20214;-60
2023/05/16 11:17:02;;;;;;;4.95;1.60;;;21.10;99.90;;;;;;5062837;28;20188;-59
2023/05/16 11:19:34;;;;;;;6.32;1.60;;;22.10;99.90;;;;;;5068954;28;20198;-62
2023/05/16 11:22:05;;;;;;;5.10;1.35;;;23.20;99.90;;;;;;5061408;28;20203;-60
2023/05/16 11:24:34;;;;;;;6.38;1.55;;;23.20;99.90;;;;;;5057892;28;20257;-61
2023/05/16 11:27:02;;;;;;;4.63;1.73;;;22.10;99.90;;;;;;5056979;28;20195;-61
2023/05/16 11:29:34;;;;;;;5.55;1.73;;;20.90;99.90;;;;;;5061256;28;20209;-63
2023/05/16 11:32:03;;;;;;;3.33;1.58;;;21.10;99.90;;;;;;5041686;28;20564;-60
2023/05/16 11:34:34;;;;;;;4.30;1.60;;;21.20;99.90;;;;;;5054827;28;20194;-61
2023/05/16 11:37:01;;;;;;;4.43;1.20;;;21.80;99.90;;;;;;5039158;28;20191;-59
2023/05/16 11:39:31;;;;;;;4.80;1.70;;;23.00;99.90;;;;;;5064942;28;20207;-60
2023/05/16 11:41:58;;;;;;;5.05;1.60;;;23.10;99.90;;;;;;5059984;28;20640;-60
2023/05/16 11:44:25;;;;;;;3.78;1.50;;;22.10;99.90;;;;;;5051916;28;20196;-62
2023/05/16 11:46:52;;;;;;;4.80;1.52;;;21.40;99.90;;;;;;5045595;28;20203;-62
2023/05/16 11:49:20;;;;;;;6.40;1.70;;;21.10;99.90;;;;;;5053126;28;20274;-62
2023/05/16 11:51:48;;;;;;;4.80;1.60;;;20.80;99.90;;;;;;5053351;28;20206;-61
2023/05/16 11:54:15;;;;;;;8.70;1.83;;;21.20;99.90;;;;;;5047694;28;20203;-60
2023/05/16 11:56:42;;;;;;;5.13;1.48;;;21.70;99.90;;;;;;5062132;28;20291;-61
2023/05/16 11:59:10;;;;;;;4.18;1.35;;;21.80;99.90;;;;;;5050352;28;20541;-62
2023/05/16 12:01:38;;;;;;;4.90;2.10;;;22.10;99.90;;;;;;5066618;28;20258;-61
2023/05/16 12:04:13;;;;;;;6.43;1.80;;;22.20;99.90;;;;;;5043323;28;20948;-60
2023/05/16 12:06:44;;;;;;;4.63;1.30;;;21.90;99.90;;;;;;5066441;28;20209;-60
2023/05/16 12:09:13;;;;;;;3.30;1.40;;;22.00;99.90;;;;;;5065591;28;20209;-61
2023/05/16 12:11:44;;;;;;;5.68;1.65;;;21.90;99.90;;;;;;5077094;28;20542;-61
2023/05/16 12:14:12;;;;;;;2.72;1.23;;;23.00;99.90;;;;;;5062861;28;20194;-61
2023/05/16 12:16:42;;;;;;;4.90;1.35;;;23.90;99.90;;;;;;5053898;28;20192;-59
2023/05/16 12:19:11;;;;;;;3.17;1.40;;;23.80;99.90;;;;;;5051977;28;20618;-59
2023/05/16 12:21:38;;;;;;;6.10;1.65;;;23.30;99.90;;;;;;5063860;28;20699;-60
2023/05/16 12:24:09;;;;;;;4.60;1.52;;;23.30;99.90;;;;;;5065405;28;20251;-59
2023/05/16 12:26:39;;;;;;;4.10;1.30;;;23.60;99.90;;;;;;5050094;28;20656;-60
2023/05/16 12:29:06;;;;;;;4.22;1.60;;;23.10;99.90;;;;;;5043639;28;20202;-60
2023/05/16 12:31:38;;;;;;;5.10;1.17;;;23.00;99.90;;;;;;5061881;28;20214;-61
2023/05/16 12:34:17;;;;;;;3.05;1.48;;;22.10;99.90;;;;;;5056998;28;20718;-60
2023/05/16 12:36:49;;;;;;;2.25;1.42;;;21.50;99.90;;;;;;5064932;28;20190;-59
2023/05/16 12:39:16;;;;;;;4.50;1.13;;;20.50;99.90;;;;;;5051687;28;20206;-60
2023/05/16 12:41:43;;;;;;;4.75;1.52;;;19.70;99.90;;;;;;5065338;28;20253;-59
2023/05/16 12:44:13;;;;;;;6.50;1.85;;;19.00;99.90;;;;;;5044945;28;20324;-61
2023/05/16 12:46:42;;;;;;;4.93;1.58;;;18.40;99.90;;;;;;5041958;28;20196;-60
2023/05/16 12:49:09;;;;;;;3.05;1.40;;;17.90;99.90;;;;;;5064041;28;20195;-62
2023/05/16 12:51:36;;;;;;;5.47;2.03;;;17.90;99.90;;;;;;5062820;28;20731;-60